Time;durP1;ratioP1;P1;durP2;ratioP2;P2;SDS_P1;SDS_P2;PMS_P1;PMS_P2;Temp;Humidity;BMP_temperature;BMP_pressure;BME280_temperature;BME280_humidity;BME280_pressure;Samples;Min_cycle;Max_cycle;Signal;HPM_P1;HPM_P2
2022/04/10 00:00:14;;;;;;;11.23;4.70;;;1.90;99.90;;;;;;5000264;28;20207;-87
2022/04/10 00:02:41;;;;;;;14.57;5.67;;;;;;;;;;4998138;28;20324;-86
2022/04/10 00:05:09;;;;;;;18.47;6.40;;;;;;;;;;5002536;28;20219;-87
2022/04/10 00:07:39;;;;;;;19.27;6.27;;;3.70;99.90;;;;;;5003464;28;20604;-86
2022/04/10 00:10:07;;;;;;;16.97;5.60;;;3.70;99.90;;;;;;4997014;28;20214;-87
2022/04/10 00:12:34;;;;;;;13.63;4.50;;;3.70;99.90;;;;;;4994720;28;20211;-86
2022/04/10 00:15:05;;;;;;;15.03;5.20;;;3.60;99.90;;;;;;4994869;28;20239;-87
2022/04/10 00:17:32;;;;;;;13.17;5.43;;;3.60;99.90;;;;;;4996091;28;20803;-86
2022/04/10 00:19:59;;;;;;;12.53;4.87;;;3.60;99.90;;;;;;4996682;28;20204;-86
2022/04/10 00:22:27;;;;;;;16.73;5.60;;;3.60;99.90;;;;;;4995613;28;20204;-86
2022/04/10 00:24:54;;;;;;;13.40;5.63;;;3.60;99.90;;;;;;4993717;28;20227;-86
2022/04/10 00:27:21;;;;;;;13.10;4.77;;;3.60;99.90;;;;;;4995734;28;20208;-87
2022/04/10 00:29:49;;;;;;;14.30;5.03;;;3.50;99.90;;;;;;4992138;28;20219;-87
2022/04/10 00:32:17;;;;;;;12.60;5.00;;;3.50;99.90;;;;;;4975254;28;20230;-86
2022/04/10 00:34:44;;;;;;;15.17;5.10;;;3.50;99.90;;;;;;4976335;28;20215;-86
2022/04/10 00:37:11;;;;;;;15.83;5.60;;;3.50;99.90;;;;;;4992141;28;20211;-86
2022/04/10 00:39:38;;;;;;;8.87;4.97;;;3.50;99.90;;;;;;5011980;28;20242;-86
2022/04/10 00:42:05;;;;;;;12.93;5.13;;;3.40;99.90;;;;;;5014839;28;20207;-86
2022/04/10 00:44:34;;;;;;;17.03;5.10;;;3.40;99.90;;;;;;5014615;28;20219;-83
2022/04/10 00:47:01;;;;;;;13.57;5.60;;;3.90;99.90;;;;;;4996357;28;20246;-84
2022/04/10 00:49:29;;;;;;;12.93;5.83;;;3.30;99.90;;;;;;4997968;28;20241;-85
2022/04/10 00:52:00;;;;;;;11.80;5.40;;;3.30;99.90;;;;;;5017675;28;20194;-85
2022/04/10 00:54:30;;;;;;;15.60;6.27;;;3.20;99.90;;;;;;5016956;28;20357;-84
2022/04/10 00:57:00;;;;;;;12.60;5.73;;;3.20;99.90;;;;;;5021685;28;20210;-86
2022/04/10 00:59:28;;;;;;;15.27;7.13;;;3.20;99.90;;;;;;5014085;28;20234;-86
2022/04/10 01:01:56;;;;;;;16.40;6.90;;;3.30;99.90;;;;;;4991784;28;20216;-86
2022/04/10 01:04:23;;;;;;;14.40;6.50;;;3.10;99.90;;;;;;4983248;28;20726;-86
2022/04/10 01:06:53;;;;;;;16.50;6.77;;;3.10;99.90;;;;;;4994401;28;20227;-86
2022/04/10 01:09:21;;;;;;;13.73;5.57;;;3.10;99.90;;;;;;4993658;28;20467;-86
2022/04/10 01:11:48;;;;;;;13.37;6.03;;;3.10;99.90;;;;;;4993793;28;20247;-85
2022/04/10 01:14:17;;;;;;;15.50;5.83;;;3.10;99.90;;;;;;4997202;28;20652;-85
2022/04/10 01:16:46;;;;;;;13.40;5.90;;;3.10;99.90;;;;;;5004401;28;20227;-88
2022/04/10 01:19:16;;;;;;;12.40;5.47;;;3.10;99.90;;;;;;4999650;28;20199;-85
2022/04/10 01:21:46;;;;;;;14.43;5.80;;;3.00;99.90;;;;;;4999714;28;20588;-85
2022/04/10 01:24:16;;;;;;;18.17;6.17;;;3.00;99.90;;;;;;4992707;28;20241;-85
2022/04/10 01:26:45;;;;;;;15.83;6.07;;;3.00;99.90;;;;;;4995402;28;20550;-85
2022/04/10 01:29:15;;;;;;;14.93;5.90;;;3.00;99.90;;;;;;5013065;28;20198;-87
2022/04/10 01:31:44;;;;;;;20.43;6.67;;;3.00;99.90;;;;;;5008682;28;20207;-87
2022/04/10 01:34:14;;;;;;;11.47;5.70;;;2.90;99.90;;;;;;5002220;28;20212;-87
2022/04/10 01:36:43;;;;;;;13.03;5.97;;;3.00;99.90;;;;;;4997954;28;20278;-85
2022/04/10 01:39:12;;;;;;;18.50;6.37;;;2.90;99.90;;;;;;5002035;28;20207;-88
2022/04/10 01:41:42;;;;;;;15.17;6.23;;;2.90;99.90;;;;;;5004616;28;20298;-87
2022/04/10 01:44:19;;;;;;;15.83;5.63;;;3.40;99.90;;;;;;5010633;28;20214;-86
2022/04/10 01:46:46;;;;;;;15.10;5.57;;;2.80;99.90;;;;;;4997871;28;20253;-85
2022/04/10 01:49:15;;;;;;;15.67;6.10;;;2.80;99.90;;;;;;4974646;28;20291;-85
2022/04/10 01:51:42;;;;;;;17.37;5.90;;;2.80;99.90;;;;;;4977193;28;20637;-86
2022/04/10 01:54:10;;;;;;;12.50;5.60;;;2.80;99.90;;;;;;4995115;28;20209;-87
2022/04/10 01:56:37;;;;;;;14.13;6.13;;;2.80;99.90;;;;;;4992334;28;20235;-86
2022/04/10 01:59:09;;;;;;;16.13;7.00;;;2.70;99.90;;;;;;4992538;28;20516;-86
2022/04/10 02:01:37;;;;;;;14.87;5.13;;;;;;;;;;4995862;28;20294;-86
2022/04/10 02:04:04;;;;;;;14.33;6.20;;;2.70;99.90;;;;;;4998209;28;20242;-86
2022/04/10 02:06:35;;;;;;;17.53;6.10;;;2.70;99.90;;;;;;4997179;28;20236;-86
2022/04/10 02:09:07;;;;;;;14.53;6.43;;;2.70;99.90;;;;;;4996977;28;20513;-86
2022/04/10 02:11:35;;;;;;;16.40;6.07;;;2.70;99.90;;;;;;4995841;28;20313;-86
2022/04/10 02:14:02;;;;;;;10.00;5.13;;;2.70;99.90;;;;;;4996598;28;20223;-86
2022/04/10 02:16:31;;;;;;;18.93;5.33;;;2.70;99.90;;;;;;4995564;28;20228;-87
2022/04/10 02:19:01;;;;;;;14.90;5.30;;;2.60;99.90;;;;;;4996625;28;20207;-87
2022/04/10 02:21:28;;;;;;;12.23;5.03;;;2.60;99.90;;;;;;5012666;28;20226;-86
2022/04/10 02:23:55;;;;;;;20.17;5.57;;;2.60;99.90;;;;;;4997687;28;20552;-86
2022/04/10 02:26:23;;;;;;;15.63;5.67;;;2.60;99.90;;;;;;4997393;28;20219;-86
2022/04/10 02:28:50;;;;;;;14.17;5.60;;;2.60;99.90;;;;;;4996207;28;20257;-86
2022/04/10 02:31:17;;;;;;;13.30;5.70;;;2.80;99.90;;;;;;4995889;28;20212;-86
2022/04/10 02:33:45;;;;;;;16.40;6.27;;;2.50;99.90;;;;;;5012588;28;20674;-87
2022/04/10 02:36:16;;;;;;;20.33;5.30;;;;;;;;;;5009677;28;20269;-86
2022/04/10 02:38:45;;;;;;;12.90;5.20;;;;;;;;;;5016707;28;20188;-87
2022/04/10 02:41:12;;;;;;;20.70;6.63;;;2.40;99.90;;;;;;5032505;28;20246;-87
2022/04/10 02:43:45;;;;;;;15.87;6.23;;;2.40;99.90;;;;;;5015890;28;20238;-86
2022/04/10 02:46:12;;;;;;;16.07;6.67;;;2.40;99.90;;;;;;5000279;28;20235;-85
2022/04/10 02:48:45;;;;;;;20.47;5.93;;;2.40;99.90;;;;;;4998024;28;20261;-84
2022/04/10 02:51:16;;;;;;;9.57;5.57;;;2.40;99.90;;;;;;5024929;28;20211;-85
2022/04/10 02:53:43;;;;;;;15.27;5.53;;;2.30;99.90;;;;;;4999938;28;20215;-86
2022/04/10 02:56:10;;;;;;;16.07;6.00;;;2.40;99.90;;;;;;5014665;28;20241;-86
2022/04/10 02:58:37;;;;;;;12.63;5.90;;;2.40;99.90;;;;;;5015094;28;20271;-86
2022/04/10 03:01:10;;;;;;;18.23;6.23;;;2.40;99.90;;;;;;4998127;28;20211;-88
2022/04/10 03:03:39;;;;;;;16.73;6.47;;;2.40;99.90;;;;;;4999793;28;20697;-86
2022/04/10 03:06:08;;;;;;;17.27;5.67;;;2.40;99.90;;;;;;5018530;28;20307;-87
2022/04/10 03:08:35;;;;;;;17.00;6.33;;;2.40;99.90;;;;;;5010911;28;20227;-87
2022/04/10 03:11:04;;;;;;;14.73;6.27;;;2.40;99.90;;;;;;5004778;28;20224;-87
2022/04/10 03:13:31;;;;;;;20.73;6.43;;;2.50;99.90;;;;;;4976984;28;20651;-86
2022/04/10 03:15:58;;;;;;;16.27;6.33;;;2.40;99.90;;;;;;4979214;28;20323;-86
2022/04/10 03:18:26;;;;;;;17.57;6.23;;;2.40;99.90;;;;;;4993167;28;20215;-87
2022/04/10 03:20:53;;;;;;;18.27;6.47;;;2.40;99.90;;;;;;5014436;28;20289;-86
2022/04/10 03:23:24;;;;;;;13.53;6.57;;;2.40;99.90;;;;;;5010981;28;20286;-85
2022/04/10 03:25:52;;;;;;;15.67;6.63;;;;;;;;;;4996419;28;20253;-86
2022/04/10 03:28:19;;;;;;;17.17;6.23;;;2.30;99.90;;;;;;4999768;28;20684;-85
2022/04/10 03:30:49;;;;;;;15.37;6.47;;;2.20;99.90;;;;;;4996160;28;20269;-86
2022/04/10 03:33:17;;;;;;;18.60;7.03;;;5.00;99.90;;;;;;5011886;28;20286;-86
2022/04/10 03:35:45;;;;;;;18.30;7.53;;;2.10;99.90;;;;;;5001675;28;20262;-85
2022/04/10 03:38:13;;;;;;;17.10;6.93;;;2.10;99.90;;;;;;4999027;28;20204;-89
2022/04/10 03:40:41;;;;;;;20.23;7.37;;;4.40;99.90;;;;;;5005545;28;20211;-86
2022/04/10 03:43:08;;;;;;;21.00;7.67;;;2.00;99.90;;;;;;5001068;28;20199;-85
2022/04/10 03:45:38;;;;;;;18.93;7.60;;;1.90;99.90;;;;;;5012712;28;20602;-83
2022/04/10 03:48:06;;;;;;;17.20;7.30;;;1.90;99.90;;;;;;4995670;28;20235;-84
2022/04/10 03:50:33;;;;;;;20.33;7.60;;;1.80;99.90;;;;;;4995595;28;20246;-86
2022/04/10 03:53:01;;;;;;;17.80;7.60;;;1.80;99.90;;;;;;5002357;28;20221;-87
2022/04/10 03:55:28;;;;;;;19.30;7.27;;;1.70;99.90;;;;;;5016391;28;20231;-85
2022/04/10 03:58:00;;;;;;;16.73;7.33;;;1.60;99.90;;;;;;4999920;28;20251;-86
2022/04/10 04:00:28;;;;;;;23.47;7.93;;;1.50;99.90;;;;;;5011298;28;20885;-85
2022/04/10 04:03:00;;;;;;;18.73;7.50;;;1.50;99.90;;;;;;5016986;28;20286;-85
2022/04/10 04:05:30;;;;;;;17.23;7.23;;;1.30;99.90;;;;;;4994231;28;20659;-86
2022/04/10 04:07:57;;;;;;;15.83;6.67;;;1.30;99.90;;;;;;5013138;28;20215;-87
2022/04/10 04:10:26;;;;;;;18.70;6.87;;;1.30;99.90;;;;;;4995507;28;20221;-85
2022/04/10 04:12:53;;;;;;;20.10;7.73;;;1.20;99.90;;;;;;5011859;28;20376;-84
2022/04/10 04:15:22;;;;;;;17.27;8.37;;;1.20;99.90;;;;;;5012891;28;20291;-87
2022/04/10 04:17:49;;;;;;;16.67;6.87;;;1.20;99.90;;;;;;5016445;28;20228;-84
2022/04/10 04:20:17;;;;;;;21.10;7.03;;;1.20;99.90;;;;;;5025297;28;20370;-86
2022/04/10 04:22:54;;;;;;;20.53;8.23;;;1.20;99.90;;;;;;5020622;28;20222;-85
2022/04/10 04:25:21;;;;;;;19.13;7.30;;;1.10;99.90;;;;;;4998487;28;20718;-86
2022/04/10 04:27:52;;;;;;;21.07;7.43;;;1.10;99.90;;;;;;4998950;28;20538;-87
2022/04/10 04:30:19;;;;;;;17.97;9.30;;;1.10;99.90;;;;;;5018042;28;20237;-87
2022/04/10 04:32:50;;;;;;;18.03;7.67;;;1.10;99.90;;;;;;5015101;28;20212;-85
2022/04/10 04:35:18;;;;;;;17.83;7.30;;;1.10;99.90;;;;;;4992115;28;20251;-84
2022/04/10 04:37:45;;;;;;;20.00;7.67;;;1.00;99.90;;;;;;4993788;28;20664;-83
2022/04/10 04:40:20;;;;;;;17.73;8.00;;;1.00;99.90;;;;;;4976388;28;20284;-84
2022/04/10 04:42:48;;;;;;;23.23;7.93;;;1.00;99.90;;;;;;4992185;28;20200;-84
2022/04/10 04:45:18;;;;;;;24.57;9.20;;;0.90;99.90;;;;;;4991522;28;20227;-85
2022/04/10 04:47:59;;;;;;;19.53;8.43;;;1.00;99.90;;;;;;4995148;28;20435;-86
2022/04/10 04:50:27;;;;;;;21.73;8.57;;;0.90;99.90;;;;;;4990617;28;20226;-85
2022/04/10 04:52:55;;;;;;;17.57;8.60;;;0.90;99.90;;;;;;4991127;28;20416;-86
2022/04/10 04:55:23;;;;;;;19.77;9.97;;;0.90;99.90;;;;;;4990318;28;20241;-85
2022/04/10 04:57:50;;;;;;;24.13;9.27;;;0.90;99.90;;;;;;5002184;28;20684;-85
2022/04/10 05:00:19;;;;;;;26.03;9.20;;;0.90;99.90;;;;;;5011256;28;20215;-85
2022/04/10 05:02:51;;;;;;;22.03;9.30;;;0.90;99.90;;;;;;5012005;28;20536;-85
2022/04/10 05:05:20;;;;;;;27.63;9.67;;;1.00;99.90;;;;;;4997779;28;20242;-85
2022/04/10 05:07:48;;;;;;;22.57;9.60;;;1.00;99.90;;;;;;5009988;28;20592;-85
2022/04/10 05:10:16;;;;;;;25.87;10.00;;;1.00;99.90;;;;;;4980294;28;20265;-86
2022/04/10 05:12:43;;;;;;;21.23;9.43;;;1.10;99.90;;;;;;5004425;28;20211;-85
2022/04/10 05:15:14;;;;;;;18.63;9.33;;;1.10;99.90;;;;;;4994084;28;20297;-86
2022/04/10 05:17:45;;;;;;;22.60;9.13;;;1.10;99.90;;;;;;5010317;28;20283;-85
2022/04/10 05:20:13;;;;;;;24.60;9.83;;;1.20;99.90;;;;;;5003454;28;20234;-84
2022/04/10 05:22:53;;;;;;;18.93;9.33;;;1.20;99.90;;;;;;5001405;28;20307;-86
2022/04/10 05:25:21;;;;;;;25.17;10.07;;;1.30;99.90;;;;;;4992258;28;20235;-86
2022/04/10 05:27:51;;;;;;;25.10;9.73;;;1.50;99.90;;;;;;4994131;28;20294;-87
2022/04/10 05:30:19;;;;;;;30.30;10.90;;;1.50;99.90;;;;;;5002603;28;20215;-85
2022/04/10 05:32:49;;;;;;;23.40;10.63;;;;;;;;;;4991568;28;20616;-85
2022/04/10 05:35:21;;;;;;;26.93;11.03;;;1.70;99.90;;;;;;5000999;28;20238;-86
2022/04/10 05:37:48;;;;;;;26.00;10.93;;;1.90;99.90;;;;;;5009876;28;20203;-85
2022/04/10 05:40:18;;;;;;;23.23;10.27;;;2.20;99.90;;;;;;5012798;28;20212;-85
2022/04/10 05:42:46;;;;;;;23.03;11.47;;;3.00;99.90;;;;;;5010529;28;20216;-85
2022/04/10 05:45:15;;;;;;;15.20;8.33;;;3.80;99.90;;;;;;5012369;28;20236;-87
2022/04/10 05:47:47;;;;;;;17.27;7.87;;;4.80;99.90;;;;;;4990563;28;20265;-87
2022/04/10 05:50:17;;;;;;;15.73;7.40;;;5.40;99.90;;;;;;4993249;28;20228;-85
2022/04/10 05:52:47;;;;;;;14.20;6.30;;;6.20;99.90;;;;;;4997250;28;20220;-85
2022/04/10 05:55:19;;;;;;;11.47;6.00;;;7.00;99.90;;;;;;5012213;28;20233;-85
2022/04/10 05:57:47;;;;;;;13.70;5.70;;;7.90;99.90;;;;;;4999997;28;20327;-86
2022/04/10 06:00:17;;;;;;;12.57;5.87;;;8.90;99.90;;;;;;5005421;28;20229;-85
2022/04/10 06:02:55;;;;;;;9.80;5.90;;;9.80;99.90;;;;;;5013482;28;20208;-85
2022/04/10 06:05:23;;;;;;;13.80;5.90;;;10.90;99.90;;;;;;5005784;28;20227;-86
2022/04/10 06:07:59;;;;;;;9.10;5.27;;;11.90;99.90;;;;;;4994163;28;20203;-87
2022/04/10 06:10:29;;;;;;;13.83;5.80;;;12.90;99.90;;;;;;4990950;28;20324;-86
2022/04/10 06:13:07;;;;;;;11.87;5.37;;;13.70;99.90;;;;;;4994057;28;20214;-84
2022/04/10 06:15:35;;;;;;;11.43;6.07;;;14.40;99.90;;;;;;5007222;28;20302;-85
2022/04/10 06:18:04;;;;;;;10.27;5.53;;;15.00;99.90;;;;;;5007950;28;20264;-86
2022/04/10 06:20:31;;;;;;;10.93;5.07;;;15.70;99.90;;;;;;4996354;28;20270;-86
2022/04/10 06:22:58;;;;;;;14.87;6.43;;;16.50;99.90;;;;;;5007118;28;20207;-85
2022/04/10 06:25:26;;;;;;;19.87;6.97;;;17.10;99.90;;;;;;4989828;28;20230;-86
2022/04/10 06:27:56;;;;;;;15.47;6.27;;;17.80;99.90;;;;;;4996840;28;20733;-86
2022/04/10 06:30:24;;;;;;;14.47;6.07;;;18.30;99.90;;;;;;4988167;28;20323;-87
2022/04/10 06:32:56;;;;;;;13.43;6.10;;;18.70;99.90;;;;;;4980702;28;20208;-87
2022/04/10 06:35:25;;;;;;;12.73;5.63;;;19.20;99.90;;;;;;5000323;28;20605;-86
2022/04/10 06:37:56;;;;;;;12.83;6.27;;;;;;;;;;4993053;28;20204;-87
2022/04/10 06:40:24;;;;;;;12.27;5.70;;;;;;;;;;4983678;28;20826;-88
2022/04/10 06:43:00;;;;;;;14.50;6.03;;;21.00;99.90;;;;;;5019224;28;20334;-88
2022/04/10 06:46:04;;;;;;;16.07;6.10;;;21.30;99.90;;;;;;4985707;28;20769;-85
2022/04/10 06:48:44;;;;;;;15.70;6.17;;;21.60;99.90;;;;;;4999570;28;20242;-86
2022/04/10 06:51:13;;;;;;;13.20;6.00;;;21.80;99.90;;;;;;5009234;28;20204;-87
2022/04/10 06:53:43;;;;;;;10.27;5.87;;;21.80;99.90;;;;;;5004066;28;20234;-86
2022/04/10 06:56:12;;;;;;;10.90;6.00;;;;;;;;;;5007555;28;20298;-87
2022/04/10 06:58:43;;;;;;;11.87;5.70;;;;;;;;;;5019817;28;20220;-89
2022/04/10 07:01:11;;;;;;;12.67;5.97;;;;;;;;;;5012747;28;20209;-88
2022/04/10 07:03:39;;;;;;;12.87;5.67;;;22.50;99.90;;;;;;5025406;28;20199;-87
2022/04/10 07:06:20;;;;;;;11.27;5.67;;;22.70;99.90;;;;;;5016586;28;20243;-87
2022/04/10 07:08:48;;;;;;;14.43;6.43;;;;;;;;;;4996759;28;20269;-87
2022/04/10 07:11:20;;;;;;;15.97;5.73;;;;;;;;;;5023662;28;20223;-83
2022/04/10 07:13:55;;;;;;;17.10;6.47;;;;;;;;;;5006956;28;20888;-86
2022/04/10 07:16:32;;;;;;;14.63;6.33;;;23.70;99.90;;;;;;5022457;28;20248;-86
2022/04/10 07:19:02;;;;;;;13.93;5.80;;;23.60;99.90;;;;;;5003685;28;20252;-87
2022/04/10 07:24:17;;;;;;;14.87;5.53;;;;;;;;;;4985697;28;20213;-88
2022/04/10 07:26:52;;;;;;;12.37;6.23;;;;;;;;;;4997678;28;20237;-85
2022/04/10 07:29:22;;;;;;;15.03;5.83;;;22.30;97.60;;;;;;4977005;28;20941;-85
2022/04/10 07:31:50;;;;;;;12.37;5.60;;;22.40;96.70;;;;;;4998132;28;20220;-87
2022/04/10 07:34:17;;;;;;;11.97;5.53;;;22.60;96.60;;;;;;4997420;28;20696;-87
2022/04/10 07:37:07;;;;;;;12.03;5.30;;;23.90;96.30;;;;;;4995134;28;20315;-87
2022/04/10 07:39:43;;;;;;;12.93;4.97;;;22.40;93.70;;;;;;4991680;28;20360;-87
2022/04/10 07:42:17;;;;;;;13.80;5.13;;;22.00;92.90;;;;;;4991469;28;20241;-86
2022/04/10 07:44:47;;;;;;;8.73;3.70;;;22.00;93.40;;;;;;4995905;28;20287;-90
2022/04/10 07:47:27;;;;;;;14.80;5.13;;;22.00;92.80;;;;;;5009428;28;20222;-90
2022/04/10 07:49:57;;;;;;;12.43;5.37;;;;;;;;;;5005676;28;20200;-90
2022/04/10 07:52:31;;;;;;;11.20;4.53;;;21.30;91.50;;;;;;5005460;28;20308;-89
2022/04/10 07:55:16;;;;;;;12.00;4.57;;;20.80;90.90;;;;;;5011347;28;20235;-90
2022/04/10 07:57:47;;;;;;;11.80;4.27;;;;;;;;;;5016046;28;20201;-89
2022/04/10 08:00:17;;;;;;;10.50;4.37;;;20.10;91.00;;;;;;5007072;28;20192;-87
2022/04/10 08:02:52;;;;;;;12.70;4.47;;;20.00;92.30;;;;;;5008735;28;20209;-86
2022/04/10 08:05:38;;;;;;;12.23;4.23;;;20.00;92.30;;;;;;5029290;28;20235;-88
2022/04/10 08:08:40;;;;;;;15.23;5.37;;;19.90;91.80;;;;;;5010438;28;20272;-88
2022/04/10 08:11:07;;;;;;;10.83;4.73;;;18.70;91.30;;;;;;5007951;28;20221;-89
2022/04/10 08:13:34;;;;;;;13.87;4.80;;;;;;;;;;4999370;28;20261;-88
2022/04/10 08:18:52;;;;;;;12.43;4.20;;;18.50;91.80;;;;;;4997004;28;20207;-88
2022/04/10 08:21:19;;;;;;;12.47;4.13;;;;;;;;;;4996442;28;20244;-88
2022/04/10 08:23:48;;;;;;;14.03;4.37;;;17.00;91.90;;;;;;4996071;28;20221;-89
2022/04/10 08:26:16;;;;;;;13.27;4.50;;;;;;;;;;4996761;28;20219;-89
2022/04/10 08:28:50;;;;;;;15.47;4.47;;;;;;;;;;4996840;28;20209;-89
2022/04/10 08:31:21;;;;;;;11.53;3.87;;;16.90;92.80;;;;;;4997025;28;20217;-89
2022/04/10 08:33:48;;;;;;;11.63;3.30;;;16.90;92.70;;;;;;4982500;28;20199;-88
2022/04/10 08:36:15;;;;;;;11.70;4.30;;;;;;;;;;4997761;28;20219;-89
2022/04/10 08:38:49;;;;;;;14.20;4.47;;;17.60;93.30;;;;;;4991806;28;20209;-91
2022/04/10 08:41:16;;;;;;;13.00;4.63;;;17.60;93.40;;;;;;5008150;28;20702;-88
2022/04/10 08:43:43;;;;;;;13.50;4.20;;;;;;;;;;5021306;28;20208;-89
2022/04/10 08:46:12;;;;;;;12.87;4.10;;;17.00;91.90;;;;;;4994494;28;20249;-88
2022/04/10 08:48:41;;;;;;;12.73;4.27;;;;;;;;;;4985040;28;20210;-89
2022/04/10 08:51:09;;;;;;;21.13;5.33;;;;;;;;;;4982135;28;20219;-90
2022/04/10 08:53:37;;;;;;;10.83;3.97;;;;;;;;;;4993697;28;20239;-90
2022/04/10 08:56:06;;;;;;;13.33;3.90;;;15.50;91.20;;;;;;5000795;28;20302;-86
2022/04/10 08:58:34;;;;;;;17.13;5.30;;;15.20;92.20;;;;;;4979749;28;20226;-87
2022/04/10 09:01:01;;;;;;;9.23;3.40;;;;;;;;;;5004499;28;20209;-86
2022/04/10 09:03:28;;;;;;;13.27;4.00;;;15.50;93.40;;;;;;4988025;28;20314;-86
2022/04/10 09:06:05;;;;;;;11.43;3.33;;;15.80;92.90;;;;;;4995061;28;20317;-87
2022/04/10 09:08:32;;;;;;;10.90;4.07;;;16.10;93.40;;;;;;4987469;28;20293;-86
2022/04/10 09:11:02;;;;;;;14.93;4.70;;;16.50;93.00;;;;;;4992856;28;20253;-86
2022/04/10 09:13:37;;;;;;;12.33;4.13;;;16.20;92.00;;;;;;4984122;28;20317;-86
2022/04/10 09:16:29;;;;;;;13.73;4.53;;;15.80;92.00;;;;;;4994280;28;20237;-86
2022/04/10 09:19:00;;;;;;;15.70;4.53;;;15.20;91.40;;;;;;4990176;28;20572;-86
2022/04/10 09:21:30;;;;;;;15.70;4.23;;;15.20;91.30;;;;;;4997947;28;20199;-86
2022/04/10 09:24:02;;;;;;;17.63;4.90;;;14.60;91.30;;;;;;4985462;28;20269;-86
2022/04/10 09:26:44;;;;;;;11.90;3.60;;;13.90;91.40;;;;;;4998053;28;20290;-86
2022/04/10 09:29:11;;;;;;;12.77;4.47;;;13.80;92.30;;;;;;5001819;28;20211;-85
2022/04/10 09:31:38;;;;;;;11.73;4.30;;;12.60;92.80;;;;;;4999377;28;20446;-85
2022/04/10 09:34:07;;;;;;;14.10;4.27;;;12.60;93.30;;;;;;5013832;28;20200;-86
2022/04/10 09:36:38;;;;;;;12.23;3.60;;;12.60;93.70;;;;;;4994084;28;20666;-86
2022/04/10 09:39:07;;;;;;;11.77;3.77;;;12.40;93.50;;;;;;4998702;28;20203;-86
2022/04/10 09:41:36;;;;;;;14.60;4.60;;;12.00;93.40;;;;;;4991374;28;20211;-85
2022/04/10 09:44:16;;;;;;;11.10;3.73;;;12.00;93.70;;;;;;4992880;28;20212;-85
2022/04/10 09:46:57;;;;;;;12.10;4.13;;;11.80;94.10;;;;;;5008772;28;20281;-85
2022/04/10 09:49:30;;;;;;;12.33;3.70;;;11.70;94.30;;;;;;4997262;28;20283;-85
2022/04/10 09:52:05;;;;;;;7.83;3.13;;;11.70;94.70;;;;;;5000139;28;20213;-84
2022/04/10 09:54:40;;;;;;;9.63;3.60;;;11.70;94.30;;;;;;5001691;28;20191;-85
2022/04/10 09:57:11;;;;;;;8.87;3.13;;;11.70;94.50;;;;;;5008355;28;20241;-85
2022/04/10 09:59:42;;;;;;;12.80;3.90;;;12.10;95.20;;;;;;4999336;28;20222;-85
2022/04/10 10:02:11;;;;;;;9.07;3.27;;;12.50;95.60;;;;;;5003690;28;20208;-85
2022/04/10 10:04:39;;;;;;;9.93;3.40;;;13.00;95.30;;;;;;5003235;28;20613;-85
2022/04/10 10:07:10;;;;;;;11.37;3.80;;;13.20;93.80;;;;;;5003217;28;20238;-85
2022/04/10 10:09:37;;;;;;;7.73;3.20;;;13.20;93.90;;;;;;5009081;28;20230;-85
2022/04/10 10:12:06;;;;;;;9.23;3.53;;;13.30;93.80;;;;;;5001377;28;20302;-85
2022/04/10 10:14:34;;;;;;;11.53;3.57;;;13.30;94.00;;;;;;4998643;28;20212;-85
2022/04/10 10:17:03;;;;;;;11.33;3.57;;;13.10;93.40;;;;;;4998615;28;20225;-85
2022/04/10 10:19:34;;;;;;;12.03;3.60;;;12.80;93.40;;;;;;5000640;28;20708;-85
2022/04/10 10:22:02;;;;;;;10.47;3.67;;;12.50;93.60;;;;;;4992646;28;20847;-86
2022/04/10 10:24:34;;;;;;;8.53;3.30;;;12.20;93.50;;;;;;4996616;28;20215;-84
2022/04/10 10:27:33;;;;;;;10.57;3.50;;;12.20;94.00;;;;;;4994125;28;20224;-84
2022/04/10 10:30:10;;;;;;;10.27;3.80;;;12.30;94.50;;;;;;4995089;28;20227;-85
2022/04/10 10:32:42;;;;;;;9.53;3.03;;;12.40;94.00;;;;;;5002840;28;20223;-85
2022/04/10 10:35:12;;;;;;;13.80;3.80;;;12.40;94.00;;;;;;4988803;28;20229;-85
2022/04/10 10:37:53;;;;;;;9.17;3.27;;;12.40;93.80;;;;;;5010180;28;20202;-85
2022/04/10 10:40:22;;;;;;;9.17;3.10;;;12.40;93.80;;;;;;4995893;28;20214;-85
2022/04/10 10:42:51;;;;;;;9.27;3.23;;;12.60;94.20;;;;;;5001575;28;20215;-86
2022/04/10 10:45:33;;;;;;;10.60;3.57;;;12.90;93.40;;;;;;5001116;28;20239;-85
2022/04/10 10:48:24;;;;;;;12.33;3.77;;;12.90;93.70;;;;;;5015882;28;20349;-85
2022/04/10 10:50:53;;;;;;;8.47;3.57;;;13.00;93.30;;;;;;4995158;28;20238;-85
2022/04/10 10:53:41;;;;;;;11.00;3.30;;;12.90;93.10;;;;;;4988122;28;20225;-86
2022/04/10 10:56:13;;;;;;;7.77;2.90;;;12.90;92.70;;;;;;4991445;28;20227;-85
2022/04/10 10:58:41;;;;;;;10.10;2.80;;;13.00;92.90;;;;;;4995587;28;20208;-85
2022/04/10 11:01:16;;;;;;;7.93;3.00;;;13.00;92.70;;;;;;5011024;28;20734;-85
2022/04/10 11:04:02;;;;;;;6.47;2.60;;;13.10;92.80;;;;;;4996866;28;20234;-85
2022/04/10 11:06:30;;;;;;;5.40;2.50;;;13.40;93.20;;;;;;4995635;28;20224;-85
2022/04/10 11:09:20;;;;;;;6.73;3.03;;;13.60;92.80;;;;;;4995233;28;20271;-85
2022/04/10 11:11:49;;;;;;;7.73;2.93;;;13.70;92.50;;;;;;5015804;28;20239;-85
2022/04/10 11:14:34;;;;;;;7.60;2.70;;;13.70;92.60;;;;;;5025482;28;20638;-85
2022/04/10 11:17:16;;;;;;;6.83;2.73;;;13.90;92.10;;;;;;5009543;28;20245;-85
2022/04/10 11:19:46;;;;;;;6.67;2.80;;;13.90;92.40;;;;;;5016130;28;20228;-86
2022/04/10 11:22:18;;;;;;;7.53;2.90;;;14.30;92.90;;;;;;5005482;28;20206;-85
2022/04/10 11:24:46;;;;;;;7.83;3.00;;;14.50;92.50;;;;;;5009546;28;20241;-85
2022/04/10 11:27:15;;;;;;;7.10;2.90;;;13.30;91.30;;;;;;5009756;28;20201;-86
2022/04/10 11:29:49;;;;;;;8.57;2.67;;;14.40;91.90;;;;;;4997294;28;20207;-86
2022/04/10 11:32:18;;;;;;;9.50;3.37;;;14.30;91.90;;;;;;4996089;28;20218;-85
2022/04/10 11:34:58;;;;;;;8.23;3.00;;;14.00;91.20;;;;;;4990800;28;20257;-86
2022/04/10 11:37:24;;;;;;;7.73;2.40;;;13.90;91.30;;;;;;4995278;28;20203;-86
2022/04/10 11:39:56;;;;;;;7.23;3.00;;;14.10;91.50;;;;;;5007279;28;20677;-86
2022/04/10 11:42:25;;;;;;;5.00;2.50;;;14.50;91.20;;;;;;4999697;28;20269;-87
2022/04/10 11:44:53;;;;;;;7.40;2.50;;;14.80;89.60;;;;;;5020108;28;20221;-86
2022/04/10 11:47:21;;;;;;;8.07;2.67;;;14.80;90.00;;;;;;5009578;28;20216;-86
2022/04/10 11:49:53;;;;;;;6.43;2.63;;;14.70;88.70;;;;;;4994952;28;20217;-86
2022/04/10 11:52:21;;;;;;;9.03;3.00;;;14.50;89.90;;;;;;4985349;28;20219;-85
2022/04/10 11:54:51;;;;;;;7.87;3.00;;;14.30;89.90;;;;;;4983243;28;20243;-83
2022/04/10 11:57:18;;;;;;;7.00;2.73;;;14.20;90.90;;;;;;4994336;28;20225;-85
2022/04/10 11:59:46;;;;;;;7.10;2.60;;;14.10;90.20;;;;;;4995327;28;20270;-84
2022/04/10 12:02:15;;;;;;;7.10;2.70;;;13.60;88.90;;;;;;4994864;28;20219;-85
2022/04/10 12:04:49;;;;;;;8.27;2.50;;;13.60;89.50;;;;;;4991737;28;20260;-84
2022/04/10 12:07:17;;;;;;;8.33;3.13;;;13.20;89.20;;;;;;4996591;28;20207;-85
2022/04/10 12:09:45;;;;;;;7.33;2.57;;;13.00;90.20;;;;;;5024305;28;20219;-84
2022/04/10 12:12:14;;;;;;;7.00;2.73;;;12.90;90.00;;;;;;4991500;28;20234;-84
2022/04/10 12:14:41;;;;;;;7.37;2.53;;;12.90;89.60;;;;;;4993155;28;20218;-85
2022/04/10 12:17:12;;;;;;;6.20;2.50;;;12.90;89.90;;;;;;4984332;28;20341;-84
2022/04/10 12:19:39;;;;;;;8.30;3.00;;;13.00;89.50;;;;;;4993467;28;20880;-84
2022/04/10 12:22:08;;;;;;;6.90;2.63;;;13.30;89.70;;;;;;4997741;28;20204;-84
2022/04/10 12:24:36;;;;;;;8.87;3.40;;;13.60;90.10;;;;;;5007354;28;20271;-84
2022/04/10 12:27:06;;;;;;;6.47;2.43;;;14.10;90.00;;;;;;4994172;28;20229;-85
2022/04/10 12:29:36;;;;;;;5.03;2.20;;;14.40;89.60;;;;;;4994254;28;20216;-85
2022/04/10 12:32:06;;;;;;;7.30;2.73;;;14.60;89.00;;;;;;4999778;28;20756;-85
2022/04/10 12:34:41;;;;;;;6.33;2.60;;;14.80;90.00;;;;;;5000936;28;20312;-85
2022/04/10 12:37:10;;;;;;;6.67;2.83;;;14.80;89.70;;;;;;4992279;28;20248;-84
2022/04/10 12:39:37;;;;;;;5.17;2.50;;;14.90;90.00;;;;;;4988436;28;20317;-85
2022/04/10 12:42:08;;;;;;;7.93;2.47;;;14.90;88.80;;;;;;4977244;28;20209;-85
2022/04/10 12:44:36;;;;;;;7.83;2.80;;;14.90;88.70;;;;;;5008290;28;20231;-85
2022/04/10 12:47:06;;;;;;;6.50;2.70;;;14.70;86.40;;;;;;5007097;28;20240;-85
2022/04/10 12:49:36;;;;;;;7.83;2.63;;;14.60;87.40;;;;;;4991207;28;20208;-85
2022/04/10 12:52:04;;;;;;;6.70;2.40;;;14.60;88.60;;;;;;4991392;28;20228;-85
2022/04/10 12:54:36;;;;;;;5.87;2.40;;;14.70;87.80;;;;;;4993582;28;20226;-85
2022/04/10 12:57:05;;;;;;;7.87;2.60;;;14.70;87.90;;;;;;4991489;28;20224;-85
2022/04/10 12:59:39;;;;;;;6.67;2.63;;;14.60;88.10;;;;;;4979886;28;20221;-85
2022/04/10 13:02:10;;;;;;;7.83;3.10;;;14.80;88.90;;;;;;4995453;28;20243;-86
2022/04/10 13:04:39;;;;;;;6.03;2.53;;;14.90;89.10;;;;;;5003859;28;20227;-85
2022/04/10 13:07:16;;;;;;;6.83;2.90;;;14.30;88.30;;;;;;4989079;28;20620;-85
2022/04/10 13:09:43;;;;;;;5.33;2.37;;;15.30;89.00;;;;;;4993345;28;20863;-86
2022/04/10 13:12:22;;;;;;;6.23;2.50;;;15.50;85.70;;;;;;5002535;28;20323;-85
2022/04/10 13:14:55;;;;;;;8.23;2.40;;;15.50;84.30;;;;;;4976306;28;20236;-85